sensor_id;sensor_type;location;lat;lon;timestamp;pressure;altitude;pressure_sealevel;temperature;humidity
3590;BME280;1809;48.470;9.226;2023-10-31T00:01:20;157493.16;;;10.95;100.00
3590;BME280;1809;48.470;9.226;2023-10-31T00:03:45;157467.00;;;10.85;100.00
3590;BME280;1809;48.470;9.226;2023-10-31T00:06:10;157472.22;;;10.87;100.00
3590;BME280;1809;48.470;9.226;2023-10-31T00:08:36;157464.38;;;10.84;100.00
3590;BME280;1809;48.470;9.226;2023-10-31T00:11:01;157474.84;;;10.88;100.00
3590;BME280;1809;48.470;9.226;2023-10-31T00:13:27;157487.94;;;10.93;100.00
3590;BME280;1809;48.470;9.226;2023-10-31T00:15:52;157503.63;;;10.99;100.00
3590;BME280;1809;48.470;9.226;2023-10-31T00:18:17;157493.16;;;10.95;100.00
3590;BME280;1809;48.470;9.226;2023-10-31T00:20:43;157503.63;;;10.99;100.00
3590;BME280;1809;48.470;9.226;2023-10-31T00:23:08;157518.00;;;11.04;100.00
3590;BME280;1809;48.470;9.226;2023-10-31T00:25:33;157519.31;;;11.05;100.00
3590;BME280;1809;48.470;9.226;2023-10-31T00:27:59;157519.31;;;11.05;100.00
3590;BME280;1809;48.470;9.226;2023-10-31T00:30:24;157521.88;;;11.06;100.00
3590;BME280;1809;48.470;9.226;2023-10-31T00:32:49;157519.31;;;11.05;100.00
3590;BME280;1809;48.470;9.226;2023-10-31T00:35:15;157523.22;;;11.06;100.00
3590;BME280;1809;48.470;9.226;2023-10-31T00:37:40;157537.56;;;11.12;100.00
3590;BME280;1809;48.470;9.226;2023-10-31T00:40:06;157537.56;;;11.12;100.00
3590;BME280;1809;48.470;9.226;2023-10-31T00:42:32;157538.88;;;11.12;100.00
3590;BME280;1809;48.470;9.226;2023-10-31T00:44:58;157537.56;;;11.12;100.00
3590;BME280;1809;48.470;9.226;2023-10-31T00:47:23;157548.06;;;11.16;100.00
3590;BME280;1809;48.470;9.226;2023-10-31T00:49:49;157561.09;;;11.21;100.00
3590;BME280;1809;48.470;9.226;2023-10-31T00:52:14;157561.09;;;11.21;100.00
3590;BME280;1809;48.470;9.226;2023-10-31T00:54:39;157563.72;;;11.22;100.00
3590;BME280;1809;48.470;9.226;2023-10-31T00:57:05;157530.97;;;11.10;100.00
3590;BME280;1809;48.470;9.226;2023-10-31T00:59:30;157528.31;;;11.09;100.00
3590;BME280;1809;48.470;9.226;2023-10-31T01:01:55;157503.63;;;10.99;100.00
3590;BME280;1809;48.470;9.226;2023-10-31T01:04:20;157518.00;;;11.04;100.00
3590;BME280;1809;48.470;9.226;2023-10-31T01:06:46;157495.78;;;10.96;100.00
3590;BME280;1809;48.470;9.226;2023-10-31T01:09:12;157474.84;;;10.88;100.00
3590;BME280;1809;48.470;9.226;2023-10-31T01:11:38;157467.00;;;10.85;100.00
3590;BME280;1809;48.470;9.226;2023-10-31T01:14:03;157461.78;;;10.83;100.00
3590;BME280;1809;48.470;9.226;2023-10-31T01:16:29;157435.63;;;10.72;100.00
3590;BME280;1809;48.470;9.226;2023-10-31T01:18:54;157421.28;;;10.67;100.00
3590;BME280;1809;48.470;9.226;2023-10-31T01:21:19;157426.50;;;10.69;100.00
3590;BME280;1809;48.470;9.226;2023-10-31T01:23:45;157406.91;;;10.61;100.00
3590;BME280;1809;48.470;9.226;2023-10-31T01:26:10;157397.75;;;10.58;100.00
3590;BME280;1809;48.470;9.226;2023-10-31T01:28:35;157406.91;;;10.61;100.00
3590;BME280;1809;48.470;9.226;2023-10-31T01:31:01;157416.03;;;10.65;100.00
3590;BME280;1809;48.470;9.226;2023-10-31T01:33:26;157425.16;;;10.68;100.00
3590;BME280;1809;48.470;9.226;2023-10-31T01:35:52;157396.44;;;10.57;100.00
3590;BME280;1809;48.470;9.226;2023-10-31T01:38:17;157410.81;;;10.63;100.00
3590;BME280;1809;48.470;9.226;2023-10-31T01:40:42;157380.78;;;10.51;100.00
3590;BME280;1809;48.470;9.226;2023-10-31T01:43:08;157365.09;;;10.45;100.00
3590;BME280;1809;48.470;9.226;2023-10-31T01:45:33;157385.97;;;10.53;100.00
3590;BME280;1809;48.470;9.226;2023-10-31T01:47:59;157370.31;;;10.47;100.00
3590;BME280;1809;48.470;9.226;2023-10-31T01:50:24;157344.16;;;10.37;100.00
3590;BME280;1809;48.470;9.226;2023-10-31T01:52:51;157375.50;;;10.49;100.00
3590;BME280;1809;48.470;9.226;2023-10-31T01:55:17;157348.09;;;10.39;100.00
3590;BME280;1809;48.470;9.226;2023-10-31T01:57:45;157336.31;;;10.34;100.00
3590;BME280;1809;48.470;9.226;2023-10-31T02:00:12;157328.47;;;10.31;100.00
3590;BME280;1809;48.470;9.226;2023-10-31T02:02:40;157333.75;;;10.33;100.00
3590;BME280;1809;48.470;9.226;2023-10-31T02:05:07;157331.13;;;10.32;100.00
3590;BME280;1809;48.470;9.226;2023-10-31T02:07:32;157325.91;;;10.30;100.00
3590;BME280;1809;48.470;9.226;2023-10-31T02:09:58;157349.41;;;10.39;100.00
3590;BME280;1809;48.470;9.226;2023-10-31T02:12:36;157367.69;;;10.46;100.00
3590;BME280;1809;48.470;9.226;2023-10-31T02:15:02;157370.31;;;10.47;100.00
3590;BME280;1809;48.470;9.226;2023-10-31T02:17:28;157365.09;;;10.45;100.00
3590;BME280;1809;48.470;9.226;2023-10-31T02:19:53;157372.94;;;10.48;100.00
3590;BME280;1809;48.470;9.226;2023-10-31T02:22:19;157378.13;;;10.50;100.00
3590;BME280;1809;48.470;9.226;2023-10-31T02:24:44;157378.13;;;10.50;100.00
3590;BME280;1809;48.470;9.226;2023-10-31T02:27:09;157397.75;;;10.58;100.00
3590;BME280;1809;48.470;9.226;2023-10-31T02:29:35;157375.50;;;10.49;100.00
3590;BME280;1809;48.470;9.226;2023-10-31T02:32:00;157383.41;;;10.52;100.00
3590;BME280;1809;48.470;9.226;2023-10-31T02:34:25;157385.97;;;10.53;100.00
3590;BME280;1809;48.470;9.226;2023-10-31T02:36:51;157379.47;;;10.51;100.00
3590;BME280;1809;48.470;9.226;2023-10-31T02:39:16;157328.47;;;10.31;100.00
3590;BME280;1809;48.470;9.226;2023-10-31T02:41:42;157332.44;;;10.33;100.00
3590;BME280;1809;48.470;9.226;2023-10-31T02:44:08;157323.28;;;10.29;100.00
3590;BME280;1809;48.470;9.226;2023-10-31T02:46:37;157329.78;;;10.32;100.00
3590;BME280;1809;48.470;9.226;2023-10-31T02:49:03;157314.13;;;10.25;100.00
3590;BME280;1809;48.470;9.226;2023-10-31T02:51:28;157302.41;;;10.21;100.00
3590;BME280;1809;48.470;9.226;2023-10-31T02:53:53;157286.66;;;10.15;100.00
3590;BME280;1809;48.470;9.226;2023-10-31T02:56:19;157312.81;;;10.25;100.00
3590;BME280;1809;48.470;9.226;2023-10-31T02:58:44;157307.59;;;10.23;100.00
3590;BME280;1809;48.470;9.226;2023-10-31T03:01:10;157312.81;;;10.25;100.00
3590;BME280;1809;48.470;9.226;2023-10-31T03:03:36;157318.06;;;10.27;100.00
3590;BME280;1809;48.470;9.226;2023-10-31T03:06:01;157310.22;;;10.24;100.00
3590;BME280;1809;48.470;9.226;2023-10-31T03:08:26;157310.22;;;10.24;100.00
3590;BME280;1809;48.470;9.226;2023-10-31T03:10:53;157310.22;;;10.24;100.00
3590;BME280;1809;48.470;9.226;2023-10-31T03:13:18;157302.41;;;10.21;100.00
3590;BME280;1809;48.470;9.226;2023-10-31T03:15:45;157289.28;;;10.16;100.00
3590;BME280;1809;48.470;9.226;2023-10-31T03:18:11;157287.97;;;10.15;100.00
3590;BME280;1809;48.470;9.226;2023-10-31T03:20:36;157323.28;;;10.29;100.00
3590;BME280;1809;48.470;9.226;2023-10-31T03:23:01;157315.44;;;10.26;100.00
3590;BME280;1809;48.470;9.226;2023-10-31T03:25:26;157307.59;;;10.23;100.00
3590;BME280;1809;48.470;9.226;2023-10-31T03:27:52;157284.09;;;10.14;100.00
3590;BME280;1809;48.470;9.226;2023-10-31T03:30:17;157289.28;;;10.16;100.00
3590;BME280;1809;48.470;9.226;2023-10-31T03:32:42;157265.75;;;10.07;100.00
3590;BME280;1809;48.470;9.226;2023-10-31T03:35:08;157286.66;;;10.15;100.00
3590;BME280;1809;48.470;9.226;2023-10-31T03:37:33;157302.41;;;10.21;100.00
3590;BME280;1809;48.470;9.226;2023-10-31T03:39:58;157295.81;;;10.18;100.00
3590;BME280;1809;48.470;9.226;2023-10-31T03:42:24;157298.44;;;10.19;100.00
3590;BME280;1809;48.470;9.226;2023-10-31T03:44:49;157298.44;;;10.19;100.00
3590;BME280;1809;48.470;9.226;2023-10-31T03:47:14;157321.97;;;10.29;100.00
3590;BME280;1809;48.470;9.226;2023-10-31T03:49:40;157310.22;;;10.24;100.00
3590;BME280;1809;48.470;9.226;2023-10-31T03:52:06;157280.09;;;10.12;100.00
3590;BME280;1809;48.470;9.226;2023-10-31T03:54:32;157265.75;;;10.07;100.00
3590;BME280;1809;48.470;9.226;2023-10-31T03:56:57;157263.13;;;10.06;100.00
3590;BME280;1809;48.470;9.226;2023-10-31T03:59:22;157251.38;;;10.01;100.00
3590;BME280;1809;48.470;9.226;2023-10-31T04:01:48;157239.59;;;9.97;100.00
3590;BME280;1809;48.470;9.226;2023-10-31T04:04:13;157259.22;;;10.04;100.00
3590;BME280;1809;48.470;9.226;2023-10-31T04:06:39;157255.28;;;10.03;100.00
3590;BME280;1809;48.470;9.226;2023-10-31T04:09:06;157263.13;;;10.06;100.00
3590;BME280;1809;48.470;9.226;2023-10-31T04:11:31;157252.69;;;10.02;100.00
3590;BME280;1809;48.470;9.226;2023-10-31T04:13:56;157250.06;;;10.01;100.00
3590;BME280;1809;48.470;9.226;2023-10-31T04:16:22;157226.56;;;9.92;100.00
3590;BME280;1809;48.470;9.226;2023-10-31T04:18:47;157223.94;;;9.91;100.00
3590;BME280;1809;48.470;9.226;2023-10-31T04:21:12;157242.22;;;9.98;100.00
3590;BME280;1809;48.470;9.226;2023-10-31T04:23:38;157220.03;;;9.89;100.00
3590;BME280;1809;48.470;9.226;2023-10-31T04:26:03;157210.91;;;9.86;100.00
3590;BME280;1809;48.470;9.226;2023-10-31T04:28:28;157213.53;;;9.87;100.00
3590;BME280;1809;48.470;9.226;2023-10-31T04:30:54;157213.53;;;9.87;100.00
3590;BME280;1809;48.470;9.226;2023-10-31T04:33:19;157208.28;;;9.85;100.00
3590;BME280;1809;48.470;9.226;2023-10-31T04:35:44;157208.28;;;9.85;100.00
3590;BME280;1809;48.470;9.226;2023-10-31T04:38:10;157199.13;;;9.81;100.00
3590;BME280;1809;48.470;9.226;2023-10-31T04:40:35;157200.44;;;9.82;100.00
3590;BME280;1809;48.470;9.226;2023-10-31T04:43:01;157184.75;;;9.76;100.00
3590;BME280;1809;48.470;9.226;2023-10-31T04:45:26;157166.47;;;9.68;100.00
3590;BME280;1809;48.470;9.226;2023-10-31T04:47:51;157171.72;;;9.70;100.00
3590;BME280;1809;48.470;9.226;2023-10-31T04:50:17;157176.94;;;9.72;100.00
3590;BME280;1809;48.470;9.226;2023-10-31T04:52:42;157170.41;;;9.70;100.00
3590;BME280;1809;48.470;9.226;2023-10-31T04:55:08;157165.22;;;9.68;100.00
3590;BME280;1809;48.470;9.226;2023-10-31T04:57:33;157170.41;;;9.70;100.00
3590;BME280;1809;48.470;9.226;2023-10-31T04:59:59;157154.75;;;9.64;100.00
3590;BME280;1809;48.470;9.226;2023-10-31T05:02:24;157146.91;;;9.61;100.00
3590;BME280;1809;48.470;9.226;2023-10-31T05:04:50;157161.25;;;9.66;100.00
3590;BME280;1809;48.470;9.226;2023-10-31T05:07:18;157166.47;;;9.68;100.00
3590;BME280;1809;48.470;9.226;2023-10-31T05:09:44;157175.63;;;9.72;100.00
3590;BME280;1809;48.470;9.226;2023-10-31T05:12:09;157166.47;;;9.68;100.00
3590;BME280;1809;48.470;9.226;2023-10-31T05:14:34;157146.91;;;9.61;100.00
3590;BME280;1809;48.470;9.226;2023-10-31T05:17:00;157161.25;;;9.66;100.00
3590;BME280;1809;48.470;9.226;2023-10-31T05:19:25;157153.44;;;9.63;100.00
3590;BME280;1809;48.470;9.226;2023-10-31T05:21:51;157158.63;;;9.65;100.00
3590;BME280;1809;48.470;9.226;2023-10-31T05:24:16;157144.28;;;9.60;100.00
3590;BME280;1809;48.470;9.226;2023-10-31T05:26:41;157136.44;;;9.57;100.00
3590;BME280;1809;48.470;9.226;2023-10-31T05:29:08;157136.44;;;9.57;100.00
3590;BME280;1809;48.470;9.226;2023-10-31T05:31:33;157126.00;;;9.53;100.00
3590;BME280;1809;48.470;9.226;2023-10-31T05:33:58;157114.25;;;9.48;100.00
3590;BME280;1809;48.470;9.226;2023-10-31T05:36:25;157111.63;;;9.47;100.00
3590;BME280;1809;48.470;9.226;2023-10-31T05:38:50;157119.47;;;9.50;100.00
3590;BME280;1809;48.470;9.226;2023-10-31T05:41:16;157098.59;;;9.42;100.00
3590;BME280;1809;48.470;9.226;2023-10-31T05:43:41;157093.34;;;9.40;100.00
3590;BME280;1809;48.470;9.226;2023-10-31T05:46:07;157095.97;;;9.41;100.00
3590;BME280;1809;48.470;9.226;2023-10-31T05:48:37;157120.78;;;9.51;100.00
3590;BME280;1809;48.470;9.226;2023-10-31T05:51:03;157114.25;;;9.48;100.00
3590;BME280;1809;48.470;9.226;2023-10-31T05:53:28;157142.97;;;9.59;100.00
3590;BME280;1809;48.470;9.226;2023-10-31T05:55:54;157142.97;;;9.59;100.00
3590;BME280;1809;48.470;9.226;2023-10-31T05:58:19;157124.72;;;9.52;100.00
3590;BME280;1809;48.470;9.226;2023-10-31T06:00:44;157136.44;;;9.57;100.00
3590;BME280;1809;48.470;9.226;2023-10-31T06:03:09;157099.91;;;9.43;100.00
3590;BME280;1809;48.470;9.226;2023-10-31T06:05:35;157114.25;;;9.48;100.00
3590;BME280;1809;48.470;9.226;2023-10-31T06:08:00;157093.25;;;9.41;100.00
3590;BME280;1809;48.470;9.226;2023-10-31T06:10:26;157080.22;;;9.36;100.00
3590;BME280;1809;48.470;9.226;2023-10-31T06:12:51;156736.63;;;9.38;100.00
3590;BME280;1809;48.470;9.226;2023-10-31T06:15:17;156708.00;;;9.27;100.00
3590;BME280;1809;48.470;9.226;2023-10-31T06:17:42;156369.69;;;9.30;100.00
3590;BME280;1809;48.470;9.226;2023-10-31T06:20:08;156359.28;;;9.26;100.00
3590;BME280;1809;48.470;9.226;2023-10-31T06:22:34;156369.69;;;9.30;100.00
3590;BME280;1809;48.470;9.226;2023-10-31T06:24:59;156369.69;;;9.30;100.00
3590;BME280;1809;48.470;9.226;2023-10-31T06:27:24;156364.47;;;9.28;100.00
3590;BME280;1809;48.470;9.226;2023-10-31T06:29:50;156381.38;;;9.35;100.00
3590;BME280;1809;48.470;9.226;2023-10-31T06:32:15;156032.66;;;9.34;100.00
3590;BME280;1809;48.470;9.226;2023-10-31T06:34:40;155332.81;;;9.32;100.00
3590;BME280;1809;48.470;9.226;2023-10-31T06:37:05;154995.84;;;9.36;100.00
3590;BME280;1809;48.470;9.226;2023-10-31T06:39:31;154305.16;;;9.38;100.00
3590;BME280;1809;48.470;9.226;2023-10-31T06:41:57;153970.75;;;9.43;100.00
3590;BME280;1809;48.470;9.226;2023-10-31T06:44:23;153614.59;;;9.39;100.00
3590;BME280;1809;48.470;9.226;2023-10-31T06:46:48;153277.63;;;9.43;100.00
3590;BME280;1809;48.470;9.226;2023-10-31T06:49:13;153282.69;;;9.45;100.00
3590;BME280;1809;48.470;9.226;2023-10-31T06:51:39;153297.97;;;9.51;100.00
3590;BME280;1809;48.470;9.226;2023-10-31T06:54:04;152570.66;;;9.38;100.00
3590;BME280;1809;48.470;9.226;2023-10-31T06:56:29;152602.34;;;9.51;100.00
3590;BME280;1809;48.470;9.226;2023-10-31T06:58:55;152259.03;;;9.52;100.00
3590;BME280;1809;48.470;9.226;2023-10-31T07:01:20;151915.69;;;9.54;100.00
3590;BME280;1809;48.470;9.226;2023-10-31T07:03:46;151588.75;;;9.62;100.00
3590;BME280;1809;48.470;9.226;2023-10-31T07:06:12;151257.94;;;9.68;100.00
3590;BME280;1809;48.470;9.226;2023-10-31T07:08:37;150241.69;;;9.79;100.00
3590;BME280;1809;48.470;9.226;2023-10-31T07:11:03;148836.38;;;9.71;100.00
3590;BME280;1809;48.470;9.226;2023-10-31T07:13:30;147462.53;;;9.77;100.00
3590;BME280;1809;48.470;9.226;2023-10-31T07:15:55;145736.25;;;9.80;100.00
3590;BME280;1809;48.470;9.226;2023-10-31T07:18:20;144352.28;;;9.81;100.00
3590;BME280;1809;48.470;9.226;2023-10-31T07:20:46;143997.44;;;9.78;100.00
3590;BME280;1809;48.470;9.226;2023-10-31T07:23:11;143328.34;;;9.88;100.00
3590;BME280;1809;48.470;9.226;2023-10-31T07:25:36;142286.81;;;9.87;100.00
3590;BME280;1809;48.470;9.226;2023-10-31T07:28:02;141601.22;;;9.90;100.00
3590;BME280;1809;48.470;9.226;2023-10-31T07:30:27;140906.34;;;9.89;100.00
3590;BME280;1809;48.470;9.226;2023-10-31T07:32:53;140577.59;;;9.96;100.00
3590;BME280;1809;48.470;9.226;2023-10-31T07:35:18;138857.22;;;10.01;100.00
3590;BME280;1809;48.470;9.226;2023-10-31T07:37:45;137482.22;;;10.05;100.00
3590;BME280;1809;48.470;9.226;2023-10-31T07:40:11;136444.44;;;10.05;100.00
3590;BME280;1809;48.470;9.226;2023-10-31T07:42:36;135072.34;;;10.10;100.00
3590;BME280;1809;48.470;9.226;2023-10-31T07:45:01;133688.41;;;10.09;100.00
3590;BME280;1809;48.470;9.226;2023-10-31T07:47:27;133007.16;;;10.14;100.00
3590;BME280;1809;48.470;9.226;2023-10-31T07:49:52;134067.34;;;10.24;100.00
3590;BME280;1809;48.470;9.226;2023-10-31T07:52:18;130595.31;;;10.17;100.00
3590;BME280;1809;48.470;9.226;2023-10-31T07:54:44;129563.59;;;10.19;100.00
3590;BME280;1809;48.470;9.226;2023-10-31T07:57:09;128898.63;;;10.31;100.00
3590;BME280;1809;48.470;9.226;2023-10-31T07:59:35;128559.72;;;10.34;100.00
3590;BME280;1809;48.470;9.226;2023-10-31T08:02:01;125790.34;;;10.30;100.00
3590;BME280;1809;48.470;9.226;2023-10-31T08:04:26;124769.94;;;10.37;100.00
3590;BME280;1809;48.470;9.226;2023-10-31T08:06:53;125131.44;;;10.45;100.00
3590;BME280;1809;48.470;9.226;2023-10-31T08:09:18;124780.25;;;10.42;100.00
3590;BME280;1809;48.470;9.226;2023-10-31T08:11:44;125138.66;;;10.49;100.00
3590;BME280;1809;48.470;9.226;2023-10-31T08:14:09;125153.09;;;10.56;100.00
3590;BME280;1809;48.470;9.226;2023-10-31T08:16:35;127241.97;;;10.64;100.00
3590;BME280;1809;48.470;9.226;2023-10-31T08:19:00;127273.47;;;10.79;100.00
3590;BME280;1809;48.470;9.226;2023-10-31T08:21:26;126586.91;;;10.82;100.00
3590;BME280;1809;48.470;9.226;2023-10-31T08:23:53;120718.91;;;10.80;100.00
3590;BME280;1809;48.470;9.226;2023-10-31T08:26:19;114524.25;;;10.84;100.00
3590;BME280;1809;48.470;9.226;2023-10-31T08:28:44;112469.06;;;10.89;100.00
3590;BME280;1809;48.470;9.226;2023-10-31T08:31:09;114560.09;;;11.03;100.00
3590;BME280;1809;48.470;9.226;2023-10-31T08:33:35;111122.59;;;11.05;100.00
3590;BME280;1809;48.470;9.226;2023-10-31T08:36:00;106662.72;;;11.10;100.00
3590;BME280;1809;48.470;9.226;2023-10-31T08:38:26;99791.13;;;11.05;100.00
3590;BME280;1809;48.470;9.226;2023-10-31T08:40:53;98436.97;;;11.16;100.00
3590;BME280;1809;48.470;9.226;2023-10-31T08:43:18;100852.09;;;11.25;100.00
3590;BME280;1809;48.470;9.226;2023-10-31T08:45:44;95376.84;;;11.31;100.00
3590;BME280;1809;48.470;9.226;2023-10-31T08:48:09;92639.00;;;11.32;100.00
3590;BME280;1809;48.470;9.226;2023-10-31T08:50:34;94034.63;;;11.49;100.00
3590;BME280;1809;48.470;9.226;2023-10-31T08:53:00;90966.69;;;11.58;100.00
3590;BME280;1809;48.470;9.226;2023-10-31T08:55:25;84813.44;;;11.60;100.00
3590;BME280;1809;48.470;9.226;2023-10-31T08:57:50;78998.34;;;11.51;100.00
3590;BME280;1809;48.470;9.226;2023-10-31T09:00:18;72197.78;;;11.62;100.00
3590;BME280;1809;48.470;9.226;2023-10-31T09:02:43;66755.22;;;11.62;100.00
3590;BME280;1809;48.470;9.226;2023-10-31T09:05:08;65408.19;;;11.74;100.00
3590;BME280;1809;48.470;9.226;2023-10-31T09:07:34;50492.66;;;11.78;100.00
3590;BME280;1809;48.470;9.226;2023-10-31T09:09:59;45090.59;;;11.89;100.00
3590;BME280;1809;48.470;9.226;2023-10-31T09:12:24;32611.13;;;11.85;100.00
3590;BME280;1809;48.470;9.226;2023-10-31T09:14:50;32618.44;;;12.00;100.00
3590;BME280;1809;48.470;9.226;2023-10-31T09:17:15;23207.78;;;12.08;100.00
3590;BME280;1809;48.470;9.226;2023-10-31T09:19:41;8466.34;;;12.05;100.00
3590;BME280;1809;48.470;9.226;2023-10-31T09:22:06;16834.78;;;12.10;100.00
3590;BME280;1809;48.470;9.226;2023-10-31T09:24:31;4124.94;;;12.25;100.00
3590;BME280;1809;48.470;9.226;2023-10-31T09:26:57;-14289.13;;;12.27;100.00
3590;BME280;1809;48.470;9.226;2023-10-31T09:29:22;-16512.81;;;12.34;100.00
3590;BME280;1809;48.470;9.226;2023-10-31T09:31:47;-16510.44;;;12.25;100.00
3590;BME280;1809;48.470;9.226;2023-10-31T09:34:13;-16512.97;;;12.34;100.00
3590;BME280;1809;48.470;9.226;2023-10-31T09:36:39;-16513.94;;;12.38;100.00
3590;BME280;1809;48.470;9.226;2023-10-31T09:39:05;-16516.75;;;12.48;100.00
3590;BME280;1809;48.470;9.226;2023-10-31T09:41:31;-16519.28;;;12.57;100.00
3590;BME280;1809;48.470;9.226;2023-10-31T09:43:57;-16520.81;;;12.63;100.00
3590;BME280;1809;48.470;9.226;2023-10-31T09:46:23;-16524.03;;;12.74;100.00
3590;BME280;1809;48.470;9.226;2023-10-31T09:48:49;-16528.53;;;12.90;100.00
3590;BME280;1809;48.470;9.226;2023-10-31T09:51:15;-16529.38;;;12.93;100.00
3590;BME280;1809;48.470;9.226;2023-10-31T09:53:41;-16531.63;;;13.02;100.00
3590;BME280;1809;48.470;9.226;2023-10-31T09:56:09;-16532.03;;;13.03;100.00
3590;BME280;1809;48.470;9.226;2023-10-31T09:58:35;-16535.41;;;13.15;100.00
3590;BME280;1809;48.470;9.226;2023-10-31T10:01:00;-16537.81;;;13.24;100.00
3590;BME280;1809;48.470;9.226;2023-10-31T10:03:26;-16542.84;;;13.42;100.00
3590;BME280;1809;48.470;9.226;2023-10-31T10:05:52;-16545.66;;;13.52;100.00
3590;BME280;1809;48.470;9.226;2023-10-31T10:08:17;-16536.97;;;13.21;100.00
3590;BME280;1809;48.470;9.226;2023-10-31T10:10:43;-16539.06;;;13.28;100.00
3590;BME280;1809;48.470;9.226;2023-10-31T10:13:08;-16541.16;;;13.36;100.00
3590;BME280;1809;48.470;9.226;2023-10-31T10:15:50;-16542.84;;;13.42;100.00
3590;BME280;1809;48.470;9.226;2023-10-31T10:18:27;-16543.97;;;13.46;100.00
3590;BME280;1809;48.470;9.226;2023-10-31T10:20:57;-16545.09;;;13.50;100.00
3590;BME280;1809;48.470;9.226;2023-10-31T10:23:24;-16551.13;;;13.72;100.00
3590;BME280;1809;48.470;9.226;2023-10-31T10:25:51;-16554.34;;;13.83;100.00
3590;BME280;1809;48.470;9.226;2023-10-31T10:28:17;-16555.75;;;13.88;100.00
3590;BME280;1809;48.470;9.226;2023-10-31T10:30:48;-16556.03;;;13.89;100.00
3590;BME280;1809;48.470;9.226;2023-10-31T10:33:14;-16557.44;;;13.94;100.00
3590;BME280;1809;48.470;9.226;2023-10-31T10:35:40;-16562.75;;;14.14;100.00
3590;BME280;1809;48.470;9.226;2023-10-31T10:38:11;-16560.81;;;14.07;100.00
3590;BME280;1809;48.470;9.226;2023-10-31T10:40:40;-16563.88;;;14.18;100.00
3590;BME280;1809;48.470;9.226;2023-10-31T10:43:12;-16564.72;;;14.21;100.00
3590;BME280;1809;48.470;9.226;2023-10-31T10:45:41;-16561.66;;;14.10;100.00
3590;BME280;1809;48.470;9.226;2023-10-31T10:48:11;-16563.88;;;14.18;100.00
3590;BME280;1809;48.470;9.226;2023-10-31T10:50:41;-16561.50;;;14.09;100.00
3590;BME280;1809;48.470;9.226;2023-10-31T10:53:14;-16563.75;;;14.17;100.00
3590;BME280;1809;48.470;9.226;2023-10-31T10:55:45;-16567.81;;;14.32;100.00
3590;BME280;1809;48.470;9.226;2023-10-31T11:00:58;-16573.97;;;14.54;100.00
3590;BME280;1809;48.470;9.226;2023-10-31T11:03:24;-16581.00;;;14.79;100.00
3590;BME280;1809;48.470;9.226;2023-10-31T11:05:50;-16581.56;;;14.81;100.00
3590;BME280;1809;48.470;9.226;2023-10-31T11:08:16;-16575.94;;;14.61;100.00
3590;BME280;1809;48.470;9.226;2023-10-31T11:10:42;-16571.31;;;14.44;100.00
3590;BME280;1809;48.470;9.226;2023-10-31T11:13:08;-16565.84;;;14.25;100.00
3590;BME280;1809;48.470;9.226;2023-10-31T11:15:34;-16560.53;;;14.06;100.00
3590;BME280;1809;48.470;9.226;2023-10-31T11:18:00;-16561.91;;;14.11;100.00
3590;BME280;1809;48.470;9.226;2023-10-31T11:20:28;-16560.53;;;14.06;100.00
3590;BME280;1809;48.470;9.226;2023-10-31T11:22:55;-16564.59;;;14.20;100.00
3590;BME280;1809;48.470;9.226;2023-10-31T11:25:23;-16568.53;;;14.34;100.00
3590;BME280;1809;48.470;9.226;2023-10-31T11:27:52;-16575.66;;;14.60;100.00
3590;BME280;1809;48.470;9.226;2023-10-31T11:30:29;-16582.13;;;14.83;100.00
3590;BME280;1809;48.470;9.226;2023-10-31T11:32:57;-16584.09;;;14.90;100.00
3590;BME280;1809;48.470;9.226;2023-10-31T11:35:23;-16581.84;;;14.82;100.00
3590;BME280;1809;48.470;9.226;2023-10-31T11:38:03;-16576.50;;;14.63;100.00
3590;BME280;1809;48.470;9.226;2023-10-31T11:43:14;-16574.81;;;14.57;100.00
3590;BME280;1809;48.470;9.226;2023-10-31T11:45:42;-16567.25;;;14.30;100.00
3590;BME280;1809;48.470;9.226;2023-10-31T11:48:10;-16558.28;;;13.97;100.00
3590;BME280;1809;48.470;9.226;2023-10-31T11:50:37;-16561.09;;;14.08;100.00
3590;BME280;1809;48.470;9.226;2023-10-31T11:53:03;-16560.53;;;14.06;100.00
3590;BME280;1809;48.470;9.226;2023-10-31T11:55:31;-16565.56;;;14.24;100.00
3590;BME280;1809;48.470;9.226;2023-10-31T11:57:58;-16561.09;;;14.08;100.00
3590;BME280;1809;48.470;9.226;2023-10-31T12:00:24;-16562.75;;;14.14;100.00
3590;BME280;1809;48.470;9.226;2023-10-31T12:03:02;-16561.09;;;14.08;100.00
3590;BME280;1809;48.470;9.226;2023-10-31T12:05:27;-16564.59;;;14.20;100.00
3590;BME280;1809;48.470;9.226;2023-10-31T12:07:54;-16570.63;;;14.42;100.00
3590;BME280;1809;48.470;9.226;2023-10-31T12:10:27;-16572.88;;;14.50;100.00
3590;BME280;1809;48.470;9.226;2023-10-31T12:12:55;-16575.09;;;14.58;100.00
3590;BME280;1809;48.470;9.226;2023-10-31T12:15:21;-16574.56;;;14.56;100.00
3590;BME280;1809;48.470;9.226;2023-10-31T12:17:48;-16579.59;;;14.74;100.00
3590;BME280;1809;48.470;9.226;2023-10-31T12:20:14;-16580.00;;;14.76;100.00
3590;BME280;1809;48.470;9.226;2023-10-31T12:22:39;-16580.44;;;14.77;100.00
3590;BME280;1809;48.470;9.226;2023-10-31T12:25:09;-16579.31;;;14.73;100.00
3590;BME280;1809;48.470;9.226;2023-10-31T12:27:50;-16582.41;;;14.84;100.00
3590;BME280;1809;48.470;9.226;2023-10-31T12:30:17;-16577.22;;;14.66;100.00
3590;BME280;1809;48.470;9.226;2023-10-31T12:32:44;-16580.00;;;14.76;100.00
3590;BME280;1809;48.470;9.226;2023-10-31T12:35:11;-16582.25;;;14.84;100.00
3590;BME280;1809;48.470;9.226;2023-10-31T12:37:44;-16581.28;;;14.80;100.00
3590;BME280;1809;48.470;9.226;2023-10-31T12:40:12;-16581.84;;;14.82;100.00
3590;BME280;1809;48.470;9.226;2023-10-31T12:42:40;-16584.91;;;14.93;100.00
3590;BME280;1809;48.470;9.226;2023-10-31T12:45:07;-16585.75;;;14.96;100.00
3590;BME280;1809;48.470;9.226;2023-10-31T12:47:33;-16591.09;;;15.16;100.00
3590;BME280;1809;48.470;9.226;2023-10-31T12:50:13;-16584.91;;;14.93;100.00
3590;BME280;1809;48.470;9.226;2023-10-31T12:52:52;-16580.56;;;14.78;100.00
3590;BME280;1809;48.470;9.226;2023-10-31T12:55:27;-16578.47;;;14.70;100.00
3590;BME280;1809;48.470;9.226;2023-10-31T12:57:56;-16577.06;;;14.65;100.00
3590;BME280;1809;48.470;9.226;2023-10-31T13:00:32;-16578.06;;;14.69;100.00
3590;BME280;1809;48.470;9.226;2023-10-31T13:03:00;-16579.44;;;14.74;100.00